Time;durP1;ratioP1;P1;durP2;ratioP2;P2;SDS_P1;SDS_P2;PMS_P1;PMS_P2;Temp;Humidity;BMP_temperature;BMP_pressure;BME280_temperature;BME280_humidity;BME280_pressure;Samples;Min_cycle;Max_cycle;Signal;HPM_P1;HPM_P2
2022/10/25 00:01:37;;;;;;;8.17;2.60;;;11.50;99.90;;;;;;4976695;28;20214;-89
2022/10/25 00:04:10;;;;;;;7.40;2.20;;;11.40;99.90;;;;;;4979962;28;20592;-90
2022/10/25 00:06:43;;;;;;;5.47;1.60;;;11.40;99.90;;;;;;4958849;28;21079;-89
2022/10/25 00:09:15;;;;;;;3.60;2.07;;;11.20;99.90;;;;;;4978424;28;20294;-89
2022/10/25 00:11:47;;;;;;;8.20;2.00;;;11.10;99.90;;;;;;4975922;28;20254;-88
2022/10/25 00:14:19;;;;;;;6.87;1.60;;;10.90;99.90;;;;;;4977860;28;20628;-89
2022/10/25 00:16:50;;;;;;;5.73;1.70;;;10.90;99.90;;;;;;4959599;28;20207;-89
2022/10/25 00:19:22;;;;;;;5.13;1.60;;;10.80;99.90;;;;;;4980701;28;20205;-89
2022/10/25 00:21:55;;;;;;;5.20;1.70;;;10.80;99.90;;;;;;4974525;28;20671;-90
2022/10/25 00:24:28;;;;;;;5.93;1.60;;;10.80;99.90;;;;;;4971039;28;20226;-90
2022/10/25 00:26:59;;;;;;;5.10;1.80;;;10.80;99.90;;;;;;4955456;28;20262;-90
2022/10/25 00:29:31;;;;;;;6.00;2.03;;;10.70;99.90;;;;;;4970162;28;20222;-90
2022/10/25 00:32:01;;;;;;;8.20;2.10;;;10.60;99.90;;;;;;4973267;28;20211;-91
2022/10/25 00:34:33;;;;;;;4.93;1.63;;;10.60;99.90;;;;;;4975685;28;20581;-90
2022/10/25 00:37:07;;;;;;;4.17;1.93;;;10.70;99.90;;;;;;4976117;28;20221;-91
2022/10/25 00:39:38;;;;;;;6.10;2.20;;;10.60;99.90;;;;;;4975082;28;20218;-90
2022/10/25 00:42:12;;;;;;;3.53;2.10;;;10.40;99.90;;;;;;4974020;28;20199;-90
2022/10/25 00:44:55;;;;;;;3.90;2.03;;;10.50;99.90;;;;;;4957677;28;20206;-91
2022/10/25 00:47:45;;;;;;;4.37;1.80;;;10.60;99.90;;;;;;4957746;28;20243;-89
2022/10/25 00:50:23;;;;;;;4.57;1.83;;;10.70;99.90;;;;;;4972757;28;20735;-89
2022/10/25 00:53:03;;;;;;;4.87;1.53;;;10.70;99.90;;;;;;4941902;28;20211;-86
2022/10/25 00:55:36;;;;;;;7.00;1.60;;;10.70;99.90;;;;;;4974914;28;20210;-89
2022/10/25 00:58:11;;;;;;;6.50;2.40;;;10.70;99.90;;;;;;4975134;28;20213;-89
2022/10/25 01:00:42;;;;;;;6.67;1.80;;;10.70;99.90;;;;;;4972417;28;20211;-90
2022/10/25 01:03:14;;;;;;;5.13;1.97;;;10.70;99.90;;;;;;4956277;28;20237;-89
2022/10/25 01:05:45;;;;;;;3.57;1.60;;;10.60;99.90;;;;;;4971831;28;20251;-89
2022/10/25 01:08:21;;;;;;;5.97;1.73;;;10.50;99.90;;;;;;4956919;28;20603;-89
2022/10/25 01:10:52;;;;;;;4.33;1.90;;;10.40;99.90;;;;;;4970548;28;20198;-89
2022/10/25 01:13:23;;;;;;;8.13;2.23;;;10.30;99.90;;;;;;4973422;28;20209;-89
2022/10/25 01:16:08;;;;;;;4.40;1.40;;;10.30;99.90;;;;;;4974375;28;20211;-87
2022/10/25 01:18:45;;;;;;;7.13;1.60;;;10.20;99.90;;;;;;4973425;28;20215;-90
2022/10/25 01:21:47;;;;;;;4.10;1.60;;;10.10;99.90;;;;;;4974788;28;20203;-90
2022/10/25 01:24:49;;;;;;;6.17;1.87;;;10.10;99.90;;;;;;4975683;28;20206;-91
2022/10/25 01:27:49;;;;;;;4.83;2.00;;;10.00;99.90;;;;;;4955314;29;20238;-91
2022/10/25 01:30:23;;;;;;;5.17;2.40;;;9.80;99.90;;;;;;4962146;28;20208;-90
2022/10/25 01:33:16;;;;;;;5.73;2.23;;;9.70;99.90;;;;;;4975804;28;20215;-90
2022/10/25 01:35:58;;;;;;;5.87;1.87;;;9.70;99.90;;;;;;4975123;28;20566;-89
2022/10/25 01:38:39;;;;;;;3.67;1.80;;;9.60;99.90;;;;;;4976002;28;20215;-93
2022/10/25 01:44:17;;;;;;;7.37;1.87;;;9.60;99.90;;;;;;5135246;23;20250;-96
2022/10/25 01:46:54;;;;;;;4.03;1.67;;;9.60;99.90;;;;;;4998239;28;20245;-96
2022/10/25 01:49:40;;;;;;;4.97;1.50;;;9.60;99.90;;;;;;5004278;28;20241;-96
2022/10/25 01:52:12;;;;;;;4.17;1.67;;;9.60;99.90;;;;;;4997422;28;20202;-96
2022/10/25 01:54:43;;;;;;;7.53;2.27;;;9.60;99.90;;;;;;4998299;28;20215;-93
2022/10/25 01:57:35;;;;;;;5.13;2.00;;;9.60;99.90;;;;;;4998178;28;20224;-94
2022/10/25 02:00:11;;;;;;;6.07;1.97;;;9.60;99.90;;;;;;5003527;28;20214;-95
2022/10/25 02:03:01;;;;;;;5.10;2.50;;;9.60;99.90;;;;;;4997096;28;20328;-96
2022/10/25 02:05:45;;;;;;;5.60;2.47;;;9.50;99.90;;;;;;4998299;28;20209;-96
2022/10/25 02:08:25;;;;;;;5.50;2.50;;;9.50;99.90;;;;;;5005807;28;20240;-96
2022/10/25 02:11:06;;;;;;;6.80;2.60;;;9.40;99.90;;;;;;4982776;28;20293;-96
2022/10/25 02:13:49;;;;;;;5.33;2.33;;;9.40;99.90;;;;;;4997752;28;20202;-94
2022/10/25 02:16:24;;;;;;;5.67;2.40;;;9.40;99.90;;;;;;4998300;28;20659;-95
2022/10/25 02:19:00;;;;;;;7.43;2.00;;;9.30;99.90;;;;;;4996253;28;20213;-94
2022/10/25 02:21:37;;;;;;;4.90;2.13;;;9.30;99.90;;;;;;5002641;28;20225;-95
2022/10/25 02:24:12;;;;;;;4.83;1.83;;;9.30;99.90;;;;;;4997473;28;20214;-95
2022/10/25 02:26:48;;;;;;;6.57;2.20;;;9.30;99.90;;;;;;4984171;28;20260;-96
2022/10/25 02:29:22;;;;;;;6.47;2.20;;;9.30;99.90;;;;;;5002508;28;20237;-96
2022/10/25 02:31:54;;;;;;;8.40;2.07;;;9.30;99.90;;;;;;5001134;28;20196;-96
2022/10/25 02:34:25;;;;;;;7.33;2.10;;;9.40;99.90;;;;;;4984104;28;20213;-96
2022/10/25 02:37:00;;;;;;;8.07;1.77;;;9.60;99.90;;;;;;4992472;28;20209;-96
2022/10/25 02:39:33;;;;;;;7.40;2.07;;;9.60;99.90;;;;;;4984201;28;20214;-96
2022/10/25 02:42:04;;;;;;;7.40;1.77;;;9.60;99.90;;;;;;4997612;28;20206;-96
2022/10/25 02:44:37;;;;;;;9.23;1.30;;;9.70;99.90;;;;;;4999233;28;20695;-96
2022/10/25 02:47:08;;;;;;;7.80;1.60;;;9.70;99.90;;;;;;5002695;28;20555;-96
2022/10/25 02:49:40;;;;;;;4.97;1.30;;;9.70;99.90;;;;;;4964377;28;20763;-96
2022/10/25 02:52:13;;;;;;;4.80;1.40;;;9.70;99.90;;;;;;4981226;28;20210;-96
2022/10/25 02:54:46;;;;;;;8.37;1.93;;;9.70;99.90;;;;;;4986927;28;20206;-96
2022/10/25 02:57:18;;;;;;;6.50;1.83;;;9.70;99.90;;;;;;4990964;28;20206;-96
2022/10/25 02:59:59;;;;;;;9.33;2.07;;;9.70;99.90;;;;;;5014816;28;20198;-95
2022/10/25 03:02:32;;;;;;;7.70;2.50;;;9.60;99.90;;;;;;4965233;28;20206;-95
2022/10/25 03:05:04;;;;;;;8.87;1.80;;;9.60;99.90;;;;;;4993957;28;20218;-95
2022/10/25 03:07:37;;;;;;;3.93;1.37;;;9.50;99.90;;;;;;4995858;28;20222;-93
2022/10/25 03:10:10;;;;;;;7.77;1.60;;;9.60;99.90;;;;;;5001092;28;20723;-94
2022/10/25 03:12:42;;;;;;;5.33;1.80;;;9.60;99.90;;;;;;4999415;28;20210;-96
2022/10/25 03:15:15;;;;;;;7.07;1.60;;;9.50;99.90;;;;;;5002570;28;20641;-95
2022/10/25 03:17:47;;;;;;;9.87;2.10;;;9.40;99.90;;;;;;5002574;28;20217;-95
2022/10/25 03:20:18;;;;;;;9.90;2.07;;;9.40;99.90;;;;;;5004229;28;20213;-94
2022/10/25 03:22:52;;;;;;;6.20;1.47;;;9.30;99.90;;;;;;5000812;28;20207;-96
2022/10/25 03:25:24;;;;;;;7.53;1.97;;;9.20;99.90;;;;;;4998581;28;20221;-94
2022/10/25 03:27:56;;;;;;;6.90;1.97;;;9.20;99.90;;;;;;4991383;28;20576;-96
2022/10/25 03:30:30;;;;;;;9.93;2.27;;;9.20;99.90;;;;;;5004220;28;20301;-96
2022/10/25 03:33:02;;;;;;;5.50;1.80;;;9.20;99.90;;;;;;4983219;28;20218;-96
2022/10/25 03:35:33;;;;;;;6.70;1.60;;;9.10;99.90;;;;;;4991272;28;20306;-96
2022/10/25 03:38:12;;;;;;;7.13;1.70;;;9.10;99.90;;;;;;5010234;28;20206;-95
2022/10/25 03:40:44;;;;;;;8.20;2.07;;;9.10;99.90;;;;;;5007424;28;20221;-96
2022/10/25 03:43:16;;;;;;;7.13;1.53;;;9.10;99.90;;;;;;4992176;28;20210;-96
2022/10/25 03:45:48;;;;;;;6.93;2.13;;;9.10;99.90;;;;;;4992124;28;20210;-96
2022/10/25 03:48:23;;;;;;;8.53;2.57;;;9.10;99.90;;;;;;5010223;28;20226;-96
2022/10/25 03:50:59;;;;;;;10.93;2.53;;;9.10;99.90;;;;;;5016653;28;20203;-96
2022/10/25 03:53:34;;;;;;;12.43;2.80;;;9.20;99.90;;;;;;4995038;28;20225;-96
2022/10/25 03:56:09;;;;;;;7.10;1.83;;;9.10;99.90;;;;;;5017354;28;20278;-96
2022/10/25 03:58:41;;;;;;;9.00;2.60;;;9.20;99.90;;;;;;5017595;28;20265;-96
2022/10/25 04:01:13;;;;;;;11.97;2.60;;;9.20;99.90;;;;;;5017873;28;20199;-96
2022/10/25 04:03:45;;;;;;;6.87;2.57;;;9.10;99.90;;;;;;5000084;28;20343;-94
2022/10/25 04:06:17;;;;;;;11.53;2.67;;;9.20;99.90;;;;;;5010787;28;20213;-96
2022/10/25 04:08:51;;;;;;;8.90;1.90;;;9.20;99.90;;;;;;4998401;28;20230;-94
2022/10/25 04:11:22;;;;;;;7.67;1.87;;;9.20;99.90;;;;;;4983794;28;20210;-94
2022/10/25 04:13:53;;;;;;;7.90;2.03;;;9.10;99.90;;;;;;5001159;28;20217;-95
2022/10/25 04:16:25;;;;;;;8.37;1.70;;;9.10;99.90;;;;;;4973679;28;20206;-94
2022/10/25 04:18:57;;;;;;;5.67;1.30;;;9.10;99.90;;;;;;5016164;28;20216;-96
2022/10/25 04:21:30;;;;;;;8.20;1.47;;;9.10;99.90;;;;;;5017241;28;20191;-96
2022/10/25 04:24:04;;;;;;;7.90;1.80;;;9.10;99.90;;;;;;5015475;28;20243;-96
2022/10/25 04:26:37;;;;;;;12.23;1.90;;;9.00;99.90;;;;;;5010255;28;20220;-95
2022/10/25 04:29:09;;;;;;;9.37;2.17;;;9.00;99.90;;;;;;4989594;28;20229;-94
2022/10/25 04:31:43;;;;;;;7.07;2.60;;;8.90;99.90;;;;;;4988943;28;20214;-95
2022/10/25 04:34:14;;;;;;;7.10;3.07;;;8.90;99.90;;;;;;4998852;28;20212;-96
2022/10/25 04:36:45;;;;;;;8.87;3.03;;;8.80;99.90;;;;;;4980787;28;20214;-96
2022/10/25 04:39:22;;;;;;;9.07;2.60;;;8.80;99.90;;;;;;5001076;28;20222;-96
2022/10/25 04:41:54;;;;;;;9.40;2.03;;;8.80;99.90;;;;;;5008210;28;20532;-96
2022/10/25 04:44:26;;;;;;;8.53;2.60;;;8.80;99.90;;;;;;5000613;28;20214;-96
2022/10/25 04:46:58;;;;;;;11.57;1.97;;;8.80;99.90;;;;;;4985745;28;20237;-96
2022/10/25 04:49:31;;;;;;;7.63;2.23;;;8.90;99.90;;;;;;4965486;28;20281;-96
2022/10/25 04:52:05;;;;;;;9.80;1.87;;;8.90;99.90;;;;;;5002361;28;20198;-96
2022/10/25 04:57:31;;;;;;;10.10;2.03;;;9.10;99.90;;;;;;5005113;28;20206;-96
2022/10/25 05:00:05;;;;;;;9.27;2.63;;;9.20;99.90;;;;;;5007326;28;20237;-96
2022/10/25 05:02:36;;;;;;;9.13;1.90;;;9.20;99.90;;;;;;5007195;28;20217;-96
2022/10/25 05:05:11;;;;;;;8.80;1.70;;;9.30;99.90;;;;;;4998786;28;20634;-96
2022/10/25 05:07:44;;;;;;;10.23;2.13;;;9.20;99.90;;;;;;4987230;28;20635;-95
2022/10/25 05:10:18;;;;;;;9.93;1.67;;;9.30;99.90;;;;;;4994055;28;20238;-94
2022/10/25 05:12:49;;;;;;;8.03;2.17;;;9.30;99.90;;;;;;4995615;28;20245;-96
2022/10/25 05:15:21;;;;;;;7.27;1.40;;;9.30;99.90;;;;;;4992307;28;20678;-94
2022/10/25 05:17:52;;;;;;;12.57;1.87;;;9.20;99.90;;;;;;4994399;28;20574;-95
2022/10/25 05:20:23;;;;;;;7.57;1.47;;;9.20;99.90;;;;;;4990595;28;20203;-95
2022/10/25 05:22:55;;;;;;;9.43;2.17;;;9.10;99.90;;;;;;4997464;28;20218;-95
2022/10/25 05:25:29;;;;;;;9.17;2.00;;;9.20;99.90;;;;;;4995000;28;20218;-94
2022/10/25 05:28:00;;;;;;;12.63;2.77;;;9.20;99.90;;;;;;4991402;28;20210;-96
2022/10/25 05:30:32;;;;;;;8.90;1.80;;;9.20;99.90;;;;;;4998456;28;20237;-94
2022/10/25 05:33:03;;;;;;;7.30;1.77;;;9.10;99.90;;;;;;4995766;28;20202;-96
2022/10/25 05:35:36;;;;;;;7.00;1.73;;;9.10;99.90;;;;;;4991580;28;20675;-95
2022/10/25 05:38:09;;;;;;;8.23;2.40;;;9.10;99.90;;;;;;5005755;28;20241;-96
2022/10/25 05:40:46;;;;;;;8.50;1.93;;;9.10;99.90;;;;;;4998022;28;20216;-96
2022/10/25 05:43:20;;;;;;;10.17;2.53;;;9.10;99.90;;;;;;5001144;28;20213;-96
2022/10/25 05:45:53;;;;;;;12.17;2.27;;;9.10;99.90;;;;;;4996547;28;20575;-96
2022/10/25 05:48:25;;;;;;;10.90;1.97;;;9.20;99.90;;;;;;5001764;28;20270;-96
2022/10/25 05:54:07;;;;;;;8.60;1.90;;;9.20;99.90;;;;;;5006878;28;20281;-96
2022/10/25 05:56:43;;;;;;;10.53;2.20;;;9.30;99.90;;;;;;5010234;28;20225;-96
2022/10/25 05:59:16;;;;;;;9.37;1.97;;;9.30;99.90;;;;;;5013405;28;20206;-96
2022/10/25 06:01:49;;;;;;;10.93;2.27;;;9.30;99.90;;;;;;5010395;28;20205;-96
2022/10/25 06:04:21;;;;;;;8.43;2.30;;;9.40;99.90;;;;;;5010133;28;20225;-96
2022/10/25 06:06:53;;;;;;;7.37;1.93;;;9.30;99.90;;;;;;5015071;28;20240;-96
2022/10/25 06:09:37;;;;;;;7.50;2.17;;;9.30;99.90;;;;;;5013813;28;20218;-95
2022/10/25 06:12:11;;;;;;;8.87;2.10;;;9.30;99.90;;;;;;5011415;28;20263;-95
2022/10/25 06:14:43;;;;;;;6.40;1.67;;;9.30;99.90;;;;;;4985808;28;20225;-94
2022/10/25 06:17:16;;;;;;;15.77;2.27;;;9.30;99.90;;;;;;4986151;28;20221;-95
2022/10/25 06:19:48;;;;;;;9.43;2.80;;;9.20;99.90;;;;;;5000785;28;20207;-94
2022/10/25 06:22:19;;;;;;;11.73;2.63;;;9.20;99.90;;;;;;4976912;28;20207;-95
2022/10/25 06:24:51;;;;;;;6.93;2.07;;;9.20;99.90;;;;;;4992442;28;20627;-95
2022/10/25 06:27:26;;;;;;;9.17;2.03;;;9.20;99.90;;;;;;4998316;28;20220;-95
2022/10/25 06:29:58;;;;;;;9.67;2.20;;;9.20;99.90;;;;;;4967989;28;20317;-95
2022/10/25 06:32:30;;;;;;;12.93;2.43;;;9.30;99.90;;;;;;4997399;28;20273;-96
2022/10/25 06:35:01;;;;;;;13.13;2.43;;;9.20;99.90;;;;;;4983435;28;20207;-96
2022/10/25 06:37:33;;;;;;;10.60;2.97;;;9.20;99.90;;;;;;4993511;28;20206;-95
2022/10/25 06:40:06;;;;;;;7.20;1.63;;;9.20;99.90;;;;;;4988270;28;20211;-95
2022/10/25 06:48:06;;;;;;;11.37;2.50;;;9.20;99.90;;;;;;5112005;23;20297;-96
2022/10/25 06:50:40;;;;;;;10.33;1.90;;;9.20;99.90;;;;;;4995998;28;20210;-96
2022/10/25 06:56:02;;;;;;;13.73;2.47;;;9.10;99.90;;;;;;5010833;28;20245;-95
2022/10/25 06:58:37;;;;;;;9.03;2.10;;;9.10;99.90;;;;;;5010597;28;20190;-96
2022/10/25 07:01:12;;;;;;;13.80;2.37;;;9.00;99.90;;;;;;4999187;28;20209;-96
2022/10/25 07:03:49;;;;;;;7.93;1.73;;;9.00;99.90;;;;;;5008042;28;20229;-96
2022/10/25 07:06:25;;;;;;;10.07;2.03;;;9.00;99.90;;;;;;5010319;28;20260;-96
2022/10/25 07:08:59;;;;;;;8.80;2.07;;;8.90;99.90;;;;;;4994861;28;20210;-96
2022/10/25 07:11:34;;;;;;;10.30;2.23;;;8.90;99.90;;;;;;5006415;28;20229;-96
2022/10/25 07:14:06;;;;;;;13.20;2.60;;;8.90;99.90;;;;;;5001018;28;20218;-96
2022/10/25 07:16:40;;;;;;;11.97;2.87;;;8.90;99.90;;;;;;5011380;28;20228;-96
2022/10/25 07:19:18;;;;;;;12.70;2.00;;;8.80;99.90;;;;;;4996895;28;20230;-95
2022/10/25 07:21:50;;;;;;;9.63;2.43;;;8.80;99.90;;;;;;4986376;28;20293;-95
2022/10/25 07:24:21;;;;;;;14.70;3.33;;;8.80;99.90;;;;;;4975880;28;20202;-94
2022/10/25 07:26:56;;;;;;;9.90;2.13;;;8.80;99.90;;;;;;4994208;28;20229;-96
2022/10/25 07:29:26;;;;;;;10.57;2.13;;;8.80;99.90;;;;;;4993826;28;20220;-95
2022/10/25 07:31:58;;;;;;;16.13;2.77;;;8.80;99.90;;;;;;4973677;28;20241;-96
2022/10/25 07:34:34;;;;;;;11.57;2.67;;;8.80;99.90;;;;;;4982536;28;20214;-95
2022/10/25 07:37:07;;;;;;;11.37;2.43;;;8.80;99.90;;;;;;4997176;28;20982;-96
2022/10/25 07:39:38;;;;;;;10.87;2.20;;;8.80;99.90;;;;;;4985085;28;20199;-96
2022/10/25 07:42:10;;;;;;;12.73;2.40;;;8.80;99.90;;;;;;5001032;28;20209;-96
2022/10/25 07:44:42;;;;;;;11.67;2.33;;;8.70;99.90;;;;;;4987366;28;20230;-96
2022/10/25 07:47:13;;;;;;;14.93;2.80;;;8.70;99.90;;;;;;4981491;28;20229;-96
2022/10/25 07:52:23;;;;;;;14.77;2.63;;;8.60;99.90;;;;;;5927851;23;20245;-96
2022/10/25 07:54:57;;;;;;;10.33;2.30;;;8.60;99.90;;;;;;4991815;28;20210;-96
2022/10/25 07:57:29;;;;;;;16.23;2.90;;;8.60;99.90;;;;;;4993386;28;20202;-96
2022/10/25 08:00:01;;;;;;;11.90;2.43;;;8.60;99.90;;;;;;4992833;28;20218;-96
2022/10/25 08:02:33;;;;;;;20.23;2.67;;;8.60;99.90;;;;;;4970574;28;20207;-96
2022/10/25 08:05:16;;;;;;;11.53;2.30;;;8.60;99.90;;;;;;4964982;28;20235;-96
2022/10/25 08:07:53;;;;;;;10.90;1.93;;;8.50;99.90;;;;;;4993498;28;20207;-96
2022/10/25 08:10:26;;;;;;;10.53;2.50;;;8.50;99.90;;;;;;4996130;28;20194;-96
2022/10/25 08:13:01;;;;;;;17.03;3.13;;;8.50;99.90;;;;;;4995919;28;20267;-96
2022/10/25 08:15:35;;;;;;;10.43;1.80;;;8.50;99.90;;;;;;4998068;28;20270;-96
2022/10/25 08:18:08;;;;;;;10.00;2.57;;;8.50;99.90;;;;;;4980495;28;20270;-96
2022/10/25 08:20:40;;;;;;;13.83;2.70;;;8.50;99.90;;;;;;4980841;28;20209;-96
2022/10/25 08:23:33;;;;;;;9.80;2.07;;;8.50;99.90;;;;;;4964204;29;20234;-96
2022/10/25 08:26:06;;;;;;;10.83;1.97;;;8.50;99.90;;;;;;4943472;28;20429;-96
2022/10/25 08:28:38;;;;;;;14.63;2.13;;;8.50;99.90;;;;;;4976868;28;20198;-95
2022/10/25 08:31:09;;;;;;;19.83;2.97;;;8.50;99.90;;;;;;4984941;28;20313;-96
2022/10/25 08:33:40;;;;;;;11.00;2.67;;;8.50;99.90;;;;;;4984003;28;20203;-96
2022/10/25 08:36:11;;;;;;;12.00;2.33;;;8.50;99.90;;;;;;4977308;28;20258;-96
2022/10/25 08:38:47;;;;;;;12.13;2.60;;;8.60;99.90;;;;;;4978094;28;20215;-96
2022/10/25 08:41:24;;;;;;;9.13;2.50;;;8.60;99.90;;;;;;4977767;28;20279;-95
2022/10/25 08:44:16;;;;;;;12.63;2.37;;;8.60;99.90;;;;;;4976282;28;20221;-95
2022/10/25 08:46:55;;;;;;;12.17;3.10;;;8.70;99.90;;;;;;4977160;28;20218;-95
2022/10/25 08:49:34;;;;;;;15.00;2.50;;;8.70;99.90;;;;;;4957898;28;20234;-96
2022/10/25 08:52:08;;;;;;;17.83;2.73;;;8.70;99.90;;;;;;4976353;28;20313;-96
2022/10/25 08:54:49;;;;;;;13.33;2.63;;;8.70;99.90;;;;;;4972503;28;20244;-94
2022/10/25 08:57:25;;;;;;;13.20;2.67;;;8.70;99.90;;;;;;4986349;28;20221;-96
2022/10/25 08:59:59;;;;;;;13.20;2.67;;;8.70;99.90;;;;;;4984800;28;20270;-96
2022/10/25 09:02:40;;;;;;;11.57;2.47;;;8.70;99.90;;;;;;4984738;28;20239;-96
2022/10/25 09:05:19;;;;;;;19.10;2.73;;;8.70;99.90;;;;;;4984296;28;20199;-96
2022/10/25 09:08:26;;;;;;;18.10;2.80;;;8.70;99.90;;;;;;4988807;28;20208;-96
2022/10/25 09:11:10;;;;;;;8.27;2.33;;;8.70;99.90;;;;;;4988130;28;20210;-96
2022/10/25 09:13:52;;;;;;;13.47;2.50;;;8.60;99.90;;;;;;4988480;28;20213;-96
2022/10/25 09:16:33;;;;;;;11.03;2.43;;;8.60;99.90;;;;;;4985844;28;20242;-96
2022/10/25 09:19:17;;;;;;;12.37;3.30;;;8.60;99.90;;;;;;4970447;29;20231;-96
2022/10/25 09:21:52;;;;;;;14.93;2.83;;;8.60;99.90;;;;;;4957855;29;20203;-94
2022/10/25 09:24:29;;;;;;;8.63;2.23;;;8.60;99.90;;;;;;4973839;29;20246;-96
2022/10/25 09:27:07;;;;;;;17.47;2.30;;;8.60;99.90;;;;;;4978638;28;20218;-95
2022/10/25 09:29:41;;;;;;;17.90;3.37;;;8.60;99.90;;;;;;4990491;28;20202;-96
2022/10/25 09:32:24;;;;;;;14.17;2.43;;;8.50;99.90;;;;;;5000229;28;20229;-95
2022/10/25 09:34:56;;;;;;;16.67;2.20;;;8.50;99.90;;;;;;5012279;28;20202;-96
2022/10/25 09:37:33;;;;;;;11.03;2.37;;;8.50;99.90;;;;;;4997185;28;20191;-95
2022/10/25 09:40:12;;;;;;;13.33;2.03;;;8.50;99.90;;;;;;4980847;28;20217;-96
2022/10/25 09:42:50;;;;;;;13.27;2.93;;;8.50;99.90;;;;;;4996702;28;20194;-94
2022/10/25 09:45:28;;;;;;;11.43;2.53;;;8.50;99.90;;;;;;4997337;28;20198;-95
2022/10/25 09:48:06;;;;;;;12.67;2.23;;;8.50;99.90;;;;;;4996280;28;20202;-96
2022/10/25 09:50:45;;;;;;;8.60;2.33;;;8.50;99.90;;;;;;4995153;28;20211;-95
2022/10/25 09:53:18;;;;;;;17.33;2.70;;;8.60;99.90;;;;;;4977386;28;20230;-96
2022/10/25 09:55:54;;;;;;;12.47;1.87;;;8.60;99.90;;;;;;4980373;28;20214;-96
2022/10/25 09:58:30;;;;;;;10.13;2.03;;;8.60;99.90;;;;;;4981175;28;20218;-95
2022/10/25 10:01:05;;;;;;;12.53;2.43;;;8.60;99.90;;;;;;4977097;28;20290;-96
2022/10/25 10:03:38;;;;;;;13.23;2.23;;;8.60;99.90;;;;;;4980897;28;20659;-95
2022/10/25 10:06:18;;;;;;;13.23;2.50;;;8.50;99.90;;;;;;4960062;29;20246;-96
2022/10/25 10:08:54;;;;;;;14.47;2.63;;;8.50;99.90;;;;;;4975666;28;20242;-96
2022/10/25 10:14:08;;;;;;;12.00;2.80;;;8.40;99.90;;;;;;6077800;23;20192;-96
2022/10/25 10:16:46;;;;;;;10.87;2.47;;;8.30;99.90;;;;;;4987984;28;20225;-96
2022/10/25 10:19:21;;;;;;;12.67;2.17;;;8.30;99.90;;;;;;4979762;28;20211;-96
2022/10/25 10:21:55;;;;;;;15.37;2.30;;;8.30;99.90;;;;;;5012340;28;20234;-96
2022/10/25 10:24:31;;;;;;;13.10;2.37;;;8.30;99.90;;;;;;4990886;28;20202;-96
2022/10/25 10:29:52;;;;;;;12.87;2.43;;;8.30;99.90;;;;;;5979420;23;20218;-96
2022/10/25 10:32:28;;;;;;;11.97;3.00;;;8.20;99.90;;;;;;4991674;28;20243;-96
2022/10/25 10:35:01;;;;;;;14.63;2.27;;;8.30;99.90;;;;;;4981849;28;20221;-96
2022/10/25 10:37:34;;;;;;;13.73;2.77;;;8.30;99.90;;;;;;4986779;28;20668;-96
2022/10/25 10:40:26;;;;;;;13.10;2.30;;;8.30;99.90;;;;;;4986127;28;20227;-96
2022/10/25 10:42:58;;;;;;;13.23;1.93;;;8.30;99.90;;;;;;4984101;28;20287;-95
2022/10/25 10:45:31;;;;;;;10.37;2.57;;;8.30;99.90;;;;;;4984903;28;20215;-95
2022/10/25 10:48:03;;;;;;;11.87;1.93;;;8.30;99.90;;;;;;4983562;28;20199;-94
2022/10/25 10:50:35;;;;;;;10.57;2.50;;;8.30;99.90;;;;;;4972314;28;20813;-95
2022/10/25 10:53:08;;;;;;;19.10;2.67;;;8.30;99.90;;;;;;4961680;28;20755;-94
2022/10/25 10:55:47;;;;;;;10.90;2.53;;;8.30;99.90;;;;;;4979906;28;20285;-94
2022/10/25 10:58:24;;;;;;;14.13;2.13;;;8.40;99.90;;;;;;4959833;28;20246;-96
2022/10/25 11:01:00;;;;;;;18.80;3.03;;;8.40;99.90;;;;;;4943506;29;20208;-95
2022/10/25 11:03:45;;;;;;;10.23;1.97;;;8.50;99.90;;;;;;4974567;28;20319;-96
2022/10/25 11:06:31;;;;;;;9.63;2.37;;;8.50;99.90;;;;;;4984613;28;20215;-96
2022/10/25 11:27:56;;;;;;;14.47;2.40;;;8.70;99.90;;;;;;5609104;23;20216;-96
2022/10/25 11:30:36;;;;;;;10.20;2.50;;;8.70;99.90;;;;;;5015936;28;20254;-96
2022/10/25 11:33:37;;;;;;;10.73;2.37;;;8.70;99.90;;;;;;5012099;28;20230;-96
2022/10/25 11:36:41;;;;;;;11.40;3.03;;;8.70;99.90;;;;;;4996041;28;20214;-96
2022/10/25 11:39:33;;;;;;;11.23;2.10;;;8.70;99.90;;;;;;4977554;28;20213;-96
2022/10/25 11:42:19;;;;;;;11.30;2.50;;;8.80;99.90;;;;;;4999194;28;20203;-95
2022/10/25 11:45:19;;;;;;;9.57;2.43;;;8.80;99.90;;;;;;4978422;28;20207;-96
2022/10/25 11:48:07;;;;;;;16.43;2.40;;;8.80;99.90;;;;;;4995798;28;20253;-96
2022/10/25 11:50:50;;;;;;;10.30;1.80;;;8.80;99.90;;;;;;4978510;28;20203;-94
2022/10/25 11:53:39;;;;;;;9.73;1.90;;;8.80;99.90;;;;;;4994652;28;20695;-96
2022/10/25 11:56:18;;;;;;;13.83;2.83;;;8.80;99.90;;;;;;4997769;28;20213;-95
2022/10/25 11:58:59;;;;;;;11.83;2.10;;;8.80;99.90;;;;;;4981466;28;20236;-96
2022/10/25 12:01:54;;;;;;;10.33;2.27;;;8.80;99.90;;;;;;4997099;28;20206;-95
2022/10/25 12:04:51;;;;;;;12.87;2.17;;;8.80;99.90;;;;;;4998434;28;20206;-95
2022/10/25 12:07:28;;;;;;;15.03;2.30;;;8.90;99.90;;;;;;4985388;28;20210;-96
2022/10/25 12:10:14;;;;;;;13.60;2.27;;;8.90;99.90;;;;;;4983070;28;20210;-96
2022/10/25 12:12:55;;;;;;;11.97;2.53;;;8.90;99.90;;;;;;4992591;28;20267;-96
2022/10/25 12:15:37;;;;;;;13.50;3.13;;;8.90;99.90;;;;;;5012303;28;20218;-96
2022/10/25 12:18:19;;;;;;;11.13;2.33;;;8.90;99.90;;;;;;5011090;28;20194;-95
2022/10/25 12:20:56;;;;;;;12.13;2.20;;;8.90;99.90;;;;;;5011930;28;20202;-96
2022/10/25 12:23:32;;;;;;;11.10;2.50;;;8.90;99.90;;;;;;4993995;28;20210;-96
2022/10/25 12:26:14;;;;;;;16.30;2.50;;;8.80;99.90;;;;;;4995731;28;20206;-96
2022/10/25 12:28:50;;;;;;;11.00;2.07;;;8.90;99.90;;;;;;5013047;28;20228;-97
2022/10/25 12:31:26;;;;;;;15.77;2.37;;;8.90;99.90;;;;;;4997646;28;20212;-96
2022/10/25 12:34:08;;;;;;;13.30;2.20;;;8.90;99.90;;;;;;5013626;28;20228;-96
2022/10/25 12:39:38;;;;;;;11.20;1.93;;;9.00;99.90;;;;;;4990850;28;20221;-96
2022/10/25 12:42:17;;;;;;;11.83;2.10;;;8.90;99.90;;;;;;4971573;29;20219;-96
2022/10/25 12:45:28;;;;;;;13.03;2.50;;;9.00;99.90;;;;;;4958756;29;20214;-96
2022/10/25 12:48:14;;;;;;;11.13;2.50;;;9.00;99.90;;;;;;4967150;28;20274;-95
2022/10/25 12:51:14;;;;;;;12.30;2.40;;;9.00;99.90;;;;;;4976734;28;20215;-96
2022/10/25 12:54:25;;;;;;;10.70;2.67;;;8.90;99.90;;;;;;4979141;28;20722;-96
2022/10/25 12:57:08;;;;;;;7.13;2.13;;;9.00;99.90;;;;;;4958375;28;20316;-95
2022/10/25 12:59:50;;;;;;;9.17;2.20;;;9.00;99.90;;;;;;4957227;28;20237;-96
2022/10/25 13:03:01;;;;;;;11.77;2.43;;;9.00;99.90;;;;;;4971182;28;20249;-96
2022/10/25 13:06:08;;;;;;;9.90;1.90;;;8.90;99.90;;;;;;4974307;28;20480;-95
2022/10/25 13:08:42;;;;;;;15.63;2.30;;;9.00;99.90;;;;;;4971358;28;20214;-95
2022/10/25 13:11:16;;;;;;;7.00;1.57;;;9.00;99.90;;;;;;4963915;28;20210;-95
2022/10/25 13:13:52;;;;;;;12.17;2.73;;;9.00;99.90;;;;;;4968663;28;20232;-96
2022/10/25 13:16:27;;;;;;;11.20;2.40;;;8.90;99.90;;;;;;4969271;28;20245;-96
2022/10/25 13:19:31;;;;;;;10.37;1.90;;;8.90;99.90;;;;;;4983054;28;20404;-96
2022/10/25 13:22:34;;;;;;;12.37;1.87;;;8.90;99.90;;;;;;4887178;29;20284;-96
2022/10/25 13:25:19;;;;;;;10.73;2.03;;;8.90;99.90;;;;;;5224864;23;20248;-96
2022/10/25 13:28:30;;;;;;;8.40;2.13;;;8.90;99.90;;;;;;4989140;28;20206;-96
2022/10/25 13:31:48;;;;;;;10.10;1.97;;;8.90;99.90;;;;;;5009351;28;20252;-96
2022/10/25 13:34:37;;;;;;;9.10;1.70;;;9.00;99.90;;;;;;5010033;28;20240;-96
2022/10/25 13:37:53;;;;;;;7.30;2.83;;;8.90;99.90;;;;;;5000277;28;20273;-96
2022/10/25 13:40:27;;;;;;;9.77;2.10;;;8.90;99.90;;;;;;4995822;28;20216;-96
2022/10/25 13:43:03;;;;;;;12.03;2.50;;;8.90;99.90;;;;;;4989788;28;20236;-96
2022/10/25 13:45:44;;;;;;;7.17;1.80;;;8.90;99.90;;;;;;4990949;28;20237;-96
2022/10/25 13:48:31;;;;;;;9.07;2.20;;;8.90;99.90;;;;;;5009067;28;20198;-96
2022/10/25 13:51:08;;;;;;;11.80;2.00;;;8.90;99.90;;;;;;4998828;28;20233;-95
2022/10/25 13:53:42;;;;;;;9.87;2.13;;;8.90;99.90;;;;;;4982065;28;20234;-96
2022/10/25 13:56:16;;;;;;;7.33;1.70;;;8.80;99.90;;;;;;4985855;28;20216;-96
2022/10/25 13:58:51;;;;;;;15.27;2.53;;;8.80;99.90;;;;;;5004395;28;20766;-96
2022/10/25 14:02:08;;;;;;;11.13;1.97;;;8.80;99.90;;;;;;4982785;28;20210;-95
2022/10/25 14:04:40;;;;;;;9.93;1.73;;;8.80;99.90;;;;;;4997054;28;20218;-94
2022/10/25 14:07:43;;;;;;;9.63;2.03;;;8.80;99.90;;;;;;4988407;28;20280;-95
2022/10/25 14:10:29;;;;;;;8.67;2.13;;;8.80;99.90;;;;;;4991532;28;20572;-96
2022/10/25 14:13:15;;;;;;;9.00;1.57;;;8.80;99.90;;;;;;4981511;28;20293;-96
2022/10/25 14:15:54;;;;;;;6.43;1.70;;;8.80;99.90;;;;;;5000146;28;20224;-95
2022/10/25 14:18:29;;;;;;;7.53;1.97;;;8.90;99.90;;;;;;4985767;28;20214;-96
2022/10/25 14:21:04;;;;;;;6.67;1.60;;;8.80;99.90;;;;;;4995062;28;20211;-96
2022/10/25 14:23:36;;;;;;;8.10;1.67;;;8.80;99.90;;;;;;4997097;28;20305;-96
2022/10/25 14:26:15;;;;;;;5.73;1.90;;;8.80;99.90;;;;;;5000096;28;20574;-95
2022/10/25 14:28:48;;;;;;;8.23;1.43;;;8.80;99.90;;;;;;5000276;28;20685;-95
2022/10/25 14:31:22;;;;;;;9.30;2.93;;;8.80;99.90;;;;;;4990218;28;20219;-95